Latest Weather Observations for Witchcliffe

IDW60801

Issued at 11:35 pm WST Thursday 23 October 2014 (issued every 30 minutes, with the page automatically refreshed every 10 minutes)

About weather observations | Map of weather stations | Latest weather observations for WA | Other Formats
Station Details ID: 009746 Name: WITCHCLIFFE Lat: -34.03 Lon: 115.10 Height: 80.0 m
Data from the previous 72 hours. | See also: Recent months at Witchcliffe
Date/Time
WST
Temp
°C
App
Temp
°C
Dew
Point
Rel
Hum
%
Delta-T
°C
Wind Press
QNH
hPa
Press
MSL
hPa
Rain
since 9 am
mm
Dir
 
Spd
km/h
Gust
km/h
Spd
kts
Gust
kts
23/11:30pm 13.2 14.2 13.2 100 0.0 SE 0 0 0 0 1018.8 1018.8 0.0
23/11:00pm 12.8 13.7 12.8 100 0.0 SE 0 0 0 0 1018.9 1018.9 0.0
23/10:30pm 12.4 13.1 12.2 99 0.1 CALM 0 0 0 0 1019.0 1019.0 0.0
23/10:00pm 11.9 12.4 11.7 99 0.1 CALM 0 0 0 0 1019.1 1019.1 0.0
23/09:30pm 12.5 13.2 12.3 99 0.1 CALM 0 0 0 0 1019.1 1019.1 0.0
23/09:00pm 12.9 13.7 12.7 99 0.1 SSE 0 0 0 0 1019.2 1019.2 0.0
23/08:30pm 13.9 13.4 13.7 99 0.1 S 9 11 5 6 1019.1 1019.1 0.0
23/08:00pm 14.4 14.0 14.2 99 0.1 S 9 13 5 7 1019.1 1019.1 0.0
23/07:30pm 14.5 14.4 13.9 96 0.3 SSE 7 11 4 6 1018.6 1018.6 0.0
23/07:00pm 14.6 14.2 13.0 90 0.9 SSE 7 13 4 7 1018.1 1018.1 0.0
23/06:30pm 15.3 14.1 12.8 85 1.4 SSW 11 15 6 8 1017.9 1017.9 0.0
23/06:00pm 16.1 14.3 13.2 83 1.6 SSW 15 22 8 12 1017.6 1017.6 0.0
23/05:30pm 16.3 14.3 13.8 85 1.4 SSW 17 24 9 13 1017.3 1017.3 0.0
23/05:00pm 17.2 15.1 12.5 74 2.6 SSW 15 20 8 11 1017.0 1017.0 0.0
23/04:30pm 17.7 15.3 12.8 73 2.7 S 17 26 9 14 1017.0 1017.0 0.0
23/04:00pm 17.9 15.4 12.4 70 3.1 SSW 17 26 9 14 1016.8 1016.8 0.0
23/03:30pm 19.5 16.8 11.8 61 4.3 SW 17 28 9 15 1016.5 1016.5 0.0
23/03:00pm 19.2 15.9 11.0 59 4.5 SSW 19 30 10 16 1016.4 1016.4 0.0
23/02:30pm 18.7 16.3 12.7 68 3.4 SW 17 30 9 16 1016.6 1016.6 0.0
23/02:00pm 18.2 15.6 12.0 67 3.4 SW 17 28 9 15 1016.5 1016.5 0.0
23/01:30pm 18.3 14.8 10.9 62 4.0 SW 20 32 11 17 1016.3 1016.3 0.0
23/01:00pm 18.2 14.9 11.7 66 3.6 SSW 20 32 11 17 1016.2 1016.2 0.0
23/12:30pm 18.4 14.6 11.0 62 4.0 SSW 22 37 12 20 1015.9 1015.9 0.0
23/12:00pm 18.6 14.9 11.4 63 3.9 SW 22 35 12 19 1015.8 1015.8 0.0
23/11:30am 18.2 14.0 11.0 63 3.9 SW 24 39 13 21 1015.8 1015.8 0.0
23/11:00am 18.2 13.2 10.8 62 4.0 SSW 28 41 15 22 1015.8 1015.8 0.0
23/10:30am 18.0 14.5 12.2 69 3.2 SW 22 35 12 19 1015.7 1015.7 0.0
23/10:00am 17.9 15.0 13.0 73 2.8 SW 20 37 11 20 1015.3 1015.3 0.0
23/09:30am 17.5 14.6 14.0 80 2.0 SW 22 37 12 20 1014.9 1014.9 0.0
23/09:00am 16.8 14.8 15.0 89 1.0 SW 19 30 10 16 1014.6 1014.6 4.0
23/08:30am 17.3 14.8 15.1 87 1.3 SW 22 35 12 19 1014.0 1014.0 4.0
23/08:00am 16.5 15.0 15.4 93 0.6 SW 17 32 9 17 1013.6 1013.6 4.0
23/07:30am 15.9 14.2 15.7 99 0.1 SW 19 33 10 18 1013.0 1012.9 4.0
23/07:00am 15.7 14.7 15.5 99 0.1 W 15 20 8 11 1012.6 1012.5 3.8
23/06:30am 16.1 14.5 15.1 94 0.6 W 17 30 9 16 1012.3 1012.2 0.6
23/06:00am 16.4 14.1 14.2 87 1.3 W 19 28 10 15 1012.0 1011.9 0.0
23/05:30am 16.4 14.6 14.4 88 1.1 W 17 28 9 15 1011.8 1011.7 0.0
23/05:00am 16.4 14.5 14.2 87 1.3 W 17 26 9 14 1011.6 1011.5 0.0
23/04:30am 16.4 15.1 13.7 84 1.5 WNW 13 19 7 10 1011.4 1011.3 0.0
23/04:00am 16.2 14.8 13.5 84 1.5 WNW 13 22 7 12 1011.4 1011.3 0.0
23/03:30am 15.8 14.1 13.5 86 1.3 NW 15 19 8 10 1011.1 1011.0 0.0
23/03:00am 15.8 14.5 13.6 87 1.2 NW 13 19 7 10 1011.0 1010.9 0.0
23/02:30am 16.1 14.9 13.9 87 1.2 NW 13 24 7 13 1011.1 1011.0 0.0
23/02:00am 16.2 15.1 14.4 89 1.0 NW 13 20 7 11 1011.4 1011.3 0.0
23/01:30am 15.9 15.2 15.3 96 0.3 NW 13 20 7 11 1011.6 1011.5 0.0
23/01:00am 15.2 15.1 15.0 99 0.1 NW 9 13 5 7 1011.8 1011.7 0.0
23/12:30am 14.8 14.3 13.7 93 0.6 NNW 9 11 5 6 1011.5 1011.4 0.0
23/12:00am 16.0 15.6 14.2 89 1.0 WNW 9 13 5 7 1012.1 1012.0 0.0
 
Date/Time
WST
Temp
°C
App
Temp
°C
Dew
Point
Rel
Hum
%
Delta-T
°C
Wind Press
QNH
hPa
Press
MSL
hPa
Rain
since 9 am
mm
Dir
 
Spd
km/h
Gust
km/h
Spd
kts
Gust
kts
22/11:30pm 16.7 16.1 14.7 88 1.2 WNW 11 20 6 11 1012.4 1012.3 0.0
22/11:00pm 16.7 15.8 14.9 89 1.0 WNW 13 20 7 11 1012.9 1012.8 0.0
22/10:30pm 16.7 15.7 14.7 88 1.2 WNW 13 19 7 10 1013.0 1012.9 0.0
22/10:00pm 16.9 15.2 14.7 87 1.3 W 17 24 9 13 1012.8 1012.7 0.0
22/09:30pm 16.9 17.0 15.6 92 0.8 NW 9 11 5 6 1013.0 1012.9 0.0
22/09:00pm 17.0 17.5 15.5 91 0.9 W 7 15 4 8 1012.6 1012.5 0.0
22/08:30pm 17.4 16.8 15.6 89 1.1 W 13 19 7 10 1012.4 1012.3 0.0
22/08:00pm 17.8 17.6 15.6 87 1.3 W 11 20 6 11 1012.4 1012.3 0.0
22/07:30pm 18.0 17.3 15.4 85 1.5 W 13 20 7 11 1012.1 1012.0 0.0
22/07:00pm 18.3 17.6 15.4 83 1.7 WNW 13 26 7 14 1011.9 1011.8 0.0
22/06:30pm 18.3 17.5 15.2 82 1.8 WNW 13 20 7 11 1011.6 1011.5 0.0
22/06:00pm 19.1 18.6 15.0 77 2.4 WNW 11 20 6 11 1011.1 1011.0 0.0
22/05:30pm 19.6 16.8 14.4 72 3.0 WNW 22 32 12 17 1010.7 1010.6 0.0
22/05:00pm 20.5 18.0 15.1 71 3.2 WNW 22 33 12 18 1010.0 1009.9 0.0
22/04:30pm 21.6 18.6 13.8 61 4.5 NW 22 35 12 19 1009.8 1009.7 0.0
22/04:00pm 23.3 19.8 12.3 50 6.3 NW 22 32 12 17 1009.8 1009.7 0.0
22/03:30pm 24.3 21.6 13.5 51 6.3 NW 20 32 11 17 1010.1 1010.0 0.0
22/03:00pm 24.1 21.1 14.8 56 5.6 NW 24 33 13 18 1010.4 1010.3 0.0
22/02:30pm 26.4 21.0 12.1 41 8.3 N 32 43 17 23 1010.5 1010.4 0.0
22/02:00pm 26.3 20.2 11.6 40 8.4 N 35 46 19 25 1010.8 1010.7 0.0
22/01:57pm 26.6 20.2 11.9 40 8.5 N 37 46 20 25 1010.8 1010.7 0.0
22/01:30pm 26.9 24.2 12.9 42 8.2 NE 19 28 10 15 1011.2 1011.1 0.0
22/01:00pm 27.3 24.3 12.5 40 8.6 NNE 20 32 11 17 1011.4 1011.3 0.0
22/12:30pm 27.6 24.6 12.4 39 8.9 NE 20 33 11 18 1011.6 1011.5 0.0
22/12:00pm 26.5 23.3 11.8 40 8.5 NE 20 32 11 17 1011.9 1011.8 0.0
22/11:30am 26.2 24.2 14.0 47 7.3 ENE 17 26 9 14 1012.5 1012.4 0.0
22/11:00am 24.5 22.4 13.7 51 6.3 E 17 24 9 13 1013.1 1013.0 0.0
22/10:30am 23.8 21.9 13.1 51 6.2 E 15 22 8 12 1014.0 1014.0 0.0
22/10:00am 22.8 21.5 13.6 56 5.4 E 13 26 7 14 1015.0 1015.0 0.0
22/09:30am 21.0 18.0 12.7 59 4.7 ENE 20 32 11 17 1015.3 1015.3 0.0
22/09:00am 19.7 17.3 12.5 63 4.0 E 17 26 9 14 1015.8 1015.8 0.0
22/08:30am 18.0 16.0 12.7 71 3.0 E 15 20 8 11 1016.0 1016.0 0.0
22/08:00am 15.6 14.0 11.4 76 2.3 E 11 19 6 10 1016.3 1016.3 0.0
22/07:30am 14.0 12.2 11.0 82 1.6 SE 11 15 6 8 1016.8 1016.8 0.0
22/07:00am 12.7 10.4 10.4 86 1.2 SE 13 17 7 9 1016.8 1016.8 0.0
22/06:30am 11.4 9.4 10.3 93 0.6 SE 11 17 6 9 1016.9 1016.9 0.0
22/06:00am 10.4 8.7 9.8 96 0.3 SE 9 13 5 7 1017.0 1017.0 0.0
22/05:30am 10.3 8.1 9.5 95 0.4 SSE 11 15 6 8 1016.8 1016.8 0.0
22/05:00am 10.3 8.4 9.1 92 0.6 SE 9 15 5 8 1016.9 1016.9 0.0
22/04:30am 10.7 9.3 9.0 89 0.8 SE 6 9 3 5 1017.0 1017.0 0.0
22/04:00am 11.0 8.8 9.3 89 0.9 SSE 11 17 6 9 1017.1 1017.1 0.0
22/03:30am 11.0 9.0 8.8 86 1.1 SSE 9 15 5 8 1017.2 1017.2 0.0
22/03:00am 10.7 7.9 8.5 86 1.1 SE 13 19 7 10 1017.4 1017.4 0.0
22/02:30am 10.9 8.0 8.3 84 1.3 SSE 13 19 7 10 1017.9 1017.9 0.0
22/02:00am 10.8 8.2 7.9 82 1.4 SE 11 17 6 9 1018.2 1018.2 0.0
22/01:30am 10.9 8.3 7.6 80 1.6 SE 11 17 6 9 1018.7 1018.7 0.0
22/01:00am 11.0 8.3 7.5 79 1.7 SSE 11 19 6 10 1019.1 1019.1 0.0
22/12:30am 11.6 8.6 7.5 76 2.0 SE 13 17 7 9 1019.4 1019.4 0.0
22/12:00am 11.8 8.8 7.5 75 2.1 SE 13 17 7 9 1019.9 1019.9 0.0
 
Date/Time
WST
Temp
°C
App
Temp
°C
Dew
Point
Rel
Hum
%
Delta-T
°C
Wind Press
QNH
hPa
Press
MSL
hPa
Rain
since 9 am
mm
Dir
 
Spd
km/h
Gust
km/h
Spd
kts
Gust
kts
21/11:30pm 12.2 8.8 7.7 74 2.2 SSE 15 22 8 12 1020.3 1020.2 0.0
21/11:00pm 12.3 8.9 7.8 74 2.2 SSE 15 20 8 11 1020.3 1020.2 0.0
21/10:30pm 12.6 9.7 8.1 74 2.2 SSE 13 20 7 11 1020.4 1020.3 0.0
21/10:00pm 13.1 10.3 8.6 74 2.3 SSE 13 24 7 13 1020.8 1020.7 0.0
21/09:30pm 13.4 10.6 8.7 73 2.4 SSE 13 20 7 11 1021.2 1021.1 0.0
21/09:00pm 13.7 10.7 9.2 74 2.3 SSE 15 24 8 13 1021.6 1021.5 0.0
21/08:30pm 14.0 11.0 9.2 73 2.5 SSE 15 22 8 12 1021.7 1021.6 0.0
21/08:00pm 14.3 11.6 9.1 71 2.6 SSE 13 19 7 10 1022.0 1021.9 0.0
21/07:30pm 14.6 11.5 8.8 68 3.0 SSE 15 22 8 12 1021.5 1021.4 0.0
21/07:00pm 15.0 11.4 8.5 65 3.3 SSE 17 24 9 13 1021.2 1021.1 0.0
21/06:30pm 15.6 12.0 8.4 62 3.7 SSE 17 26 9 14 1021.3 1021.2 0.0
21/06:00pm 16.3 12.2 7.8 57 4.3 SSE 19 26 10 14 1021.3 1021.2 0.0
21/05:30pm 17.2 13.6 8.4 56 4.5 SSE 17 24 9 13 1021.1 1021.0 0.0
21/05:00pm 17.7 13.1 8.3 54 4.8 SSE 22 33 12 18 1021.0 1020.9 0.0
21/04:30pm 18.5 14.2 7.9 50 5.4 SSE 20 30 11 16 1021.1 1021.0 0.0
21/04:00pm 19.2 15.1 8.5 50 5.6 S 20 28 11 15 1020.9 1020.8 0.0
21/03:30pm 20.2 16.8 9.2 49 5.8 SSE 17 24 9 13 1021.3 1021.2 0.0
21/03:00pm 20.0 16.4 8.4 47 6.0 SSE 17 24 9 13 1021.6 1021.5 0.0
21/02:30pm 20.3 17.1 8.6 47 6.1 SSE 15 24 8 13 1021.5 1021.4 0.0
21/02:00pm 20.3 17.4 8.3 46 6.2 SE 13 24 7 13 1021.8 1021.7 0.0
21/01:30pm 19.8 16.7 7.2 44 6.4 SE 13 24 7 13 1022.0 1021.9 0.0
21/01:00pm 19.4 16.4 7.5 46 6.1 ESE 13 19 7 10 1022.4 1022.3 0.0
21/12:30pm 19.1 16.2 8.1 49 5.7 ESE 13 22 7 12 1022.8 1022.7 0.0
21/12:00pm 19.2 16.6 9.4 53 5.2 SE 13 22 7 12 1022.8 1022.7 0.0
21/11:30am 18.2 14.9 7.9 51 5.3 S 15 28 8 15 1023.0 1022.9 0.0
21/11:00am 18.1 15.1 7.8 51 5.2 SSE 13 24 7 13 1023.1 1023.0 0.0
21/10:30am 17.4 14.4 7.5 52 5.0 SE 13 22 7 12 1023.3 1023.2 0.0
21/10:00am 17.4 14.5 8.0 54 4.8 SE 13 22 7 12 1023.3 1023.2 0.0
21/09:30am 17.0 14.5 8.2 56 4.5 SE 11 19 6 10 1023.4 1023.3 0.0
21/09:00am 16.4 14.1 7.3 55 4.5 SE 9 19 5 10 1023.3 1023.2 0.2
21/08:30am 15.4 13.1 7.4 59 4.0 E 9 13 5 7 1023.1 1023.0 0.2
21/08:00am 14.0 12.5 9.2 73 2.4 E 7 11 4 6 1023.1 1023.0 0.2
21/07:30am 12.2 12.9 12.2 100 0.0 CALM 0 0 0 0 1023.0 1022.9 0.2
21/07:00am 9.9 9.5 9.9 100 0.0 NE 2 7 1 4 1022.5 1022.4 0.2
21/06:30am 8.0 7.5 8.0 100 0.0 CALM 0 0 0 0 1022.4 1022.3 0.2
21/06:00am 6.3 5.5 6.3 100 0.0 CALM 0 0 0 0 1022.2 1022.1 0.2
21/05:30am 6.0 5.1 6.0 100 0.0 CALM 0 0 0 0 1022.1 1022.0 0.2
21/05:00am 6.2 5.3 6.2 100 0.0 CALM 0 0 0 0 1021.9 1021.8 0.2
21/04:30am 7.1 6.4 7.1 100 0.0 CALM 0 0 0 0 1021.5 1021.4 0.2
21/04:00am 7.2 6.6 7.2 100 0.0 CALM 0 0 0 0 1021.3 1021.2 0.2
21/03:30am 6.7 5.9 6.7 100 0.0 CALM 0 0 0 0 1021.0 1020.9 0.2
21/03:00am 7.1 6.4 7.1 100 0.0 CALM 0 0 0 0 1021.0 1020.9 0.2
21/02:30am 6.9 6.2 6.9 100 0.0 CALM 0 0 0 0 1020.8 1020.7 0.2
21/02:00am 6.6 5.8 6.6 100 0.0 CALM 0 0 0 0 1020.8 1020.7 0.2
21/01:30am 6.5 5.7 6.4 99 0.0 CALM 0 0 0 0 1020.8 1020.7 0.2
21/01:00am 6.8 6.0 6.7 99 0.0 CALM 0 0 0 0 1020.7 1020.6 0.2
21/12:30am 7.0 6.3 6.9 99 0.0 CALM 0 6 0 3 1020.7 1020.6 0.2
21/12:00am 7.6 7.0 7.5 99 0.0 CALM 0 0 0 0 1020.8 1020.7 0.2

Other Formats:

Comma delimited format used in spreadsheet applications
http://www.bom.gov.au/fwo/IDW60801/IDW60801.95641.axf

JavaScript Object Notation format (JSON) in row-major order
http://www.bom.gov.au/fwo/IDW60801/IDW60801.95641.json